createdAt,value
2017-06-15T00:00:04.912Z,24.3
2017-06-15T00:02:05.602Z,24.3
2017-06-15T00:04:05.412Z,24.3
2017-06-15T00:06:07.625Z,24.3
2017-06-15T00:08:07.836Z,24.3
2017-06-15T00:10:10.664Z,24.3
2017-06-15T00:12:05.875Z,24.3
2017-06-15T00:14:07.603Z,24.3
2017-06-15T00:16:05.430Z,24.2
2017-06-15T00:18:05.345Z,24.3
2017-06-15T00:20:05.111Z,24.2
2017-06-15T00:22:05.410Z,24.2
2017-06-15T00:24:05.090Z,24.2
2017-06-15T00:26:05.469Z,24.2
2017-06-15T00:28:05.255Z,24.2
2017-06-15T00:30:10.540Z,24.2
2017-06-15T00:32:05.195Z,24.2
2017-06-15T00:34:10.178Z,24.2
2017-06-15T00:36:05.432Z,24.2
2017-06-15T00:38:07.655Z,24.2
2017-06-15T00:40:10.602Z,24.2
2017-06-15T00:42:05.025Z,24.2
2017-06-15T00:44:04.751Z,24.1
2017-06-15T00:46:05.633Z,24.1
2017-06-15T00:48:05.369Z,24.1
2017-06-15T00:50:07.582Z,24.1
2017-06-15T00:52:05.416Z,24.1
2017-06-15T00:54:04.652Z,24.1
2017-06-15T00:56:05.418Z,24.1
2017-06-15T00:58:05.315Z,24.1
2017-06-15T01:00:04.996Z,24.1
2017-06-15T01:02:07.214Z,24
2017-06-15T01:04:05.118Z,24
2017-06-15T01:06:04.798Z,24.1
2017-06-15T01:08:05.482Z,24
2017-06-15T01:10:05.257Z,24
2017-06-15T01:12:05.018Z,24
2017-06-15T01:14:07.443Z,24
2017-06-15T01:16:07.781Z,24
2017-06-15T01:18:04.811Z,24
2017-06-15T01:20:10.522Z,23.9
2017-06-15T01:22:05.365Z,23.9
2017-06-15T01:24:05.069Z,23.9
2017-06-15T01:26:07.340Z,23.9
2017-06-15T01:28:05.453Z,23.9
2017-06-15T01:30:05.054Z,24
2017-06-15T01:32:07.270Z,23.9
2017-06-15T01:34:07.478Z,23.9
2017-06-15T01:36:04.702Z,23.8
2017-06-15T01:38:05.445Z,23.9
2017-06-15T01:40:07.916Z,23.8
2017-06-15T01:42:05.131Z,23.8
2017-06-15T01:44:04.799Z,23.9
2017-06-15T01:46:05.661Z,23.8
2017-06-15T01:48:07.570Z,23.8
2017-06-15T01:50:17.911Z,23.8
2017-06-15T01:52:07.551Z,23.8
2017-06-15T01:54:07.820Z,23.8
2017-06-15T01:56:05.486Z,23.8
2017-06-15T01:58:10.568Z,23.8
2017-06-15T02:00:05.311Z,23.8
2017-06-15T02:02:05.192Z,23.8
2017-06-15T02:04:10.163Z,23.8
2017-06-15T02:06:05.487Z,23.8
2017-06-15T02:08:05.177Z,23.8
2017-06-15T02:10:05.242Z,23.8
2017-06-15T02:12:05.023Z,23.8
2017-06-15T02:14:05.316Z,23.8
2017-06-15T02:16:07.752Z,23.8
2017-06-15T02:18:10.309Z,23.8
2017-06-15T02:20:05.000Z,23.8
2017-06-15T02:22:04.862Z,23.8
2017-06-15T02:24:05.548Z,23.8
2017-06-15T02:26:07.981Z,23.8
2017-06-15T02:28:07.574Z,23.8
2017-06-15T02:30:05.274Z,23.8
2017-06-15T02:32:07.489Z,23.8
2017-06-15T02:34:05.015Z,23.8
2017-06-15T02:36:05.274Z,23.8
2017-06-15T02:38:07.631Z,23.7
2017-06-15T02:40:05.391Z,23.8
2017-06-15T02:42:05.040Z,23.8
2017-06-15T02:44:07.324Z,23.8
2017-06-15T02:46:05.120Z,23.8
2017-06-15T02:48:07.335Z,23.8
2017-06-15T02:50:05.242Z,23.8
2017-06-15T02:52:05.120Z,23.8
2017-06-15T02:54:05.373Z,23.8
2017-06-15T02:56:12.695Z,23.8
2017-06-15T02:58:08.030Z,23.8
2017-06-15T03:00:04.790Z,23.7
2017-06-15T03:02:05.562Z,23.7
2017-06-15T03:04:05.393Z,23.8
2017-06-15T03:06:05.775Z,23.7
2017-06-15T03:08:08.019Z,23.8
2017-06-15T03:10:07.955Z,23.7
2017-06-15T03:12:04.679Z,23.8
2017-06-15T03:14:05.385Z,23.7
2017-06-15T03:16:04.718Z,23.8
2017-06-15T03:18:15.306Z,23.7
2017-06-15T03:20:05.002Z,23.7
2017-06-15T03:22:05.259Z,23.7
2017-06-15T03:24:04.985Z,23.8
2017-06-15T03:26:04.764Z,23.7
2017-06-15T03:28:05.513Z,23.7
2017-06-15T03:30:04.739Z,23.7
2017-06-15T03:32:10.545Z,23.7
2017-06-15T03:34:04.856Z,23.7
2017-06-15T03:36:05.554Z,23.7
2017-06-15T03:38:05.440Z,23.8
2017-06-15T03:40:04.775Z,23.8
2017-06-15T03:42:05.549Z,23.8
2017-06-15T03:44:05.234Z,23.8
2017-06-15T03:46:05.323Z,23.8
2017-06-15T03:48:07.194Z,23.8
2017-06-15T03:50:05.051Z,23.8
2017-06-15T03:52:07.550Z,23.8
2017-06-15T03:54:07.382Z,23.8
2017-06-15T03:56:05.204Z,23.8
2017-06-15T03:58:05.351Z,23.8
2017-06-15T04:00:05.091Z,23.8
2017-06-15T04:02:04.809Z,23.8
2017-06-15T04:04:10.576Z,23.8
2017-06-15T04:06:05.214Z,23.8
2017-06-15T04:08:04.988Z,23.8
2017-06-15T04:10:07.285Z,23.8
2017-06-15T04:12:10.544Z,23.8
2017-06-15T04:14:07.817Z,23.8
2017-06-15T04:16:08.024Z,23.9
2017-06-15T04:18:07.412Z,23.9
2017-06-15T04:20:05.042Z,23.9
2017-06-15T04:22:04.710Z,23.9
2017-06-15T04:24:13.120Z,23.9
2017-06-15T04:26:04.986Z,23.9
2017-06-15T04:28:05.086Z,23.9
2017-06-15T04:30:07.323Z,23.9
2017-06-15T04:32:05.202Z,23.9
2017-06-15T04:34:05.899Z,23.9
2017-06-15T04:36:07.982Z,23.9
2017-06-15T04:38:04.928Z,23.9
2017-06-15T04:40:04.822Z,24
2017-06-15T04:42:05.701Z,24
2017-06-15T04:44:05.367Z,24
2017-06-15T04:46:05.386Z,24
2017-06-15T04:48:05.049Z,24
2017-06-15T04:50:05.264Z,24
2017-06-15T04:52:05.082Z,24
2017-06-15T04:54:04.783Z,24
2017-06-15T04:56:05.029Z,24
2017-06-15T04:58:05.069Z,24.1
2017-06-15T05:00:04.802Z,24.1
2017-06-15T05:02:05.442Z,24.1
2017-06-15T05:04:05.560Z,24.1
2017-06-15T05:06:05.270Z,24.1
2017-06-15T05:08:04.920Z,24.2
2017-06-15T05:10:08.149Z,24.2
2017-06-15T05:12:05.357Z,24.2
2017-06-15T05:14:05.391Z,24.2
2017-06-15T05:16:05.125Z,24.2
2017-06-15T05:18:04.990Z,24.2
2017-06-15T05:20:07.296Z,24.3
2017-06-15T05:22:07.698Z,24.3
2017-06-15T05:24:15.482Z,24.3
2017-06-15T05:26:07.700Z,24.3
2017-06-15T05:28:05.461Z,24.3
2017-06-15T05:30:05.407Z,24.3
2017-06-15T05:32:10.154Z,24.4
2017-06-15T05:34:04.996Z,24.4
2017-06-15T05:36:04.773Z,24.4
2017-06-15T05:38:05.481Z,24.4
2017-06-15T05:40:05.231Z,24.4
2017-06-15T05:42:05.458Z,24.4
2017-06-15T05:44:05.190Z,24.5
2017-06-15T05:46:07.540Z,24.5
2017-06-15T05:48:05.246Z,24.5
2017-06-15T05:50:04.958Z,24.5
2017-06-15T05:52:05.025Z,24.5
2017-06-15T05:54:04.748Z,24.5
2017-06-15T05:56:05.440Z,24.6
2017-06-15T05:58:07.660Z,24.6
2017-06-15T06:00:05.361Z,24.6
2017-06-15T06:02:05.062Z,24.6
2017-06-15T06:04:04.902Z,24.6
2017-06-15T06:06:04.655Z,24.7
2017-06-15T06:08:04.955Z,24.7
2017-06-15T06:10:04.673Z,24.7
2017-06-15T06:12:05.354Z,24.7
2017-06-15T06:14:05.534Z,24.7
2017-06-15T06:16:05.704Z,24.7
2017-06-15T06:18:05.743Z,24.7
2017-06-15T06:20:05.424Z,24.8
2017-06-15T06:22:04.928Z,24.8
2017-06-15T06:24:04.605Z,24.8
2017-06-15T06:26:05.326Z,24.8
2017-06-15T06:28:05.199Z,24.7
2017-06-15T06:30:04.972Z,24.8
2017-06-15T06:32:04.668Z,24.7
2017-06-15T06:34:05.369Z,24.7
2017-06-15T06:36:05.512Z,24.8
2017-06-15T06:38:04.902Z,24.7
2017-06-15T06:40:05.755Z,24.8
2017-06-15T06:42:10.424Z,24.8
2017-06-15T06:44:16.349Z,24.8
2017-06-15T06:46:10.423Z,24.8
2017-06-15T06:48:04.789Z,24.8
2017-06-15T06:50:05.527Z,24.8
2017-06-15T06:52:05.392Z,24.8
2017-06-15T06:54:05.567Z,24.8
2017-06-15T06:56:05.517Z,24.8
2017-06-15T06:58:10.229Z,24.8
2017-06-15T07:00:04.952Z,24.8
2017-06-15T07:02:07.162Z,24.8
2017-06-15T07:04:04.996Z,24.8
2017-06-15T07:06:04.792Z,24.8
2017-06-15T07:08:04.708Z,24.8
2017-06-15T07:10:07.928Z,24.8
2017-06-15T07:12:05.149Z,24.8
2017-06-15T07:14:04.818Z,24.8
2017-06-15T07:16:05.740Z,24.8
2017-06-15T07:18:04.729Z,24.8
2017-06-15T07:20:07.400Z,24.9
2017-06-15T07:22:05.276Z,24.9
2017-06-15T07:24:05.556Z,24.9
2017-06-15T07:26:07.792Z,24.9
2017-06-15T07:28:05.670Z,24.9
2017-06-15T07:30:07.487Z,24.9
2017-06-15T07:32:05.221Z,24.9
2017-06-15T07:34:10.302Z,24.9
2017-06-15T07:36:05.010Z,24.9
2017-06-15T07:38:05.431Z,25
2017-06-15T07:40:05.201Z,25
2017-06-15T07:42:04.945Z,25
2017-06-15T07:44:07.257Z,25.1
2017-06-15T07:46:05.026Z,25.1
2017-06-15T07:48:04.724Z,25.1
2017-06-15T07:50:07.947Z,25.1
2017-06-15T07:52:04.663Z,25.1
2017-06-15T07:54:05.386Z,25.2
2017-06-15T07:56:04.631Z,25.2
2017-06-15T07:58:05.475Z,25.2
2017-06-15T08:00:05.159Z,25.2
2017-06-15T08:02:04.875Z,25.2
2017-06-15T08:04:04.683Z,25.2
2017-06-15T08:06:05.376Z,25.2
2017-06-15T08:08:05.096Z,25.3
2017-06-15T08:10:05.143Z,25.3
2017-06-15T08:12:04.815Z,25.3
2017-06-15T08:14:04.599Z,25.3
2017-06-15T08:16:07.444Z,25.4
2017-06-15T08:18:04.833Z,25.4
2017-06-15T08:20:05.539Z,25.4
2017-06-15T08:22:05.348Z,25.5
2017-06-15T08:24:07.633Z,25.5
2017-06-15T08:26:04.890Z,25.5
2017-06-15T08:28:05.710Z,25.5
2017-06-15T08:30:08.062Z,25.5
2017-06-15T08:32:07.441Z,25.6
2017-06-15T08:34:05.218Z,25.6
2017-06-15T08:36:04.947Z,25.6
2017-06-15T08:38:07.277Z,25.7
2017-06-15T08:40:04.985Z,25.6
2017-06-15T08:42:04.680Z,25.6
2017-06-15T08:44:04.950Z,25.7
2017-06-15T08:46:05.132Z,25.7
2017-06-15T08:48:09.867Z,25.7
2017-06-15T08:50:05.651Z,25.7
2017-06-15T08:52:05.466Z,25.8
2017-06-15T08:54:04.748Z,25.8
2017-06-15T08:56:04.918Z,25.8
2017-06-15T08:58:10.710Z,25.8
2017-06-15T09:00:09.974Z,25.8
2017-06-15T09:02:04.654Z,25.8
2017-06-15T09:04:07.453Z,25.8
2017-06-15T09:06:05.174Z,25.8
2017-06-15T09:08:05.426Z,25.9
2017-06-15T09:10:05.238Z,25.9
2017-06-15T09:12:05.484Z,26
2017-06-15T09:14:08.115Z,25.9
2017-06-15T09:16:10.464Z,25.9
2017-06-15T09:18:05.369Z,25.9
2017-06-15T09:20:05.124Z,26
2017-06-15T09:22:04.874Z,26
2017-06-15T09:24:07.670Z,26
2017-06-15T09:26:05.381Z,26
2017-06-15T09:28:05.156Z,26
2017-06-15T09:30:04.899Z,26
2017-06-15T09:32:05.572Z,26
2017-06-15T09:34:07.854Z,26
2017-06-15T09:36:10.165Z,26
2017-06-15T09:38:04.841Z,26
2017-06-15T09:40:05.531Z,26
2017-06-15T09:42:05.228Z,26
2017-06-15T09:44:04.896Z,26
2017-06-15T09:46:08.088Z,26
2017-06-15T09:48:04.899Z,26
2017-06-15T09:50:07.205Z,26
2017-06-15T09:52:05.153Z,26
2017-06-15T09:54:06.101Z,26
2017-06-15T09:56:05.240Z,26
2017-06-15T09:58:05.093Z,26
2017-06-15T10:00:04.815Z,26
2017-06-15T10:02:05.858Z,26
2017-06-15T10:04:07.917Z,26
2017-06-15T10:06:04.686Z,26
2017-06-15T10:08:04.909Z,26
2017-06-15T10:10:08.279Z,26
2017-06-15T10:12:04.719Z,26
2017-06-15T10:14:08.016Z,26
2017-06-15T10:16:04.713Z,26
2017-06-15T10:18:05.608Z,26
2017-06-15T10:20:05.289Z,26
2017-06-15T10:22:05.170Z,26
2017-06-15T10:24:12.500Z,26
2017-06-15T10:26:04.947Z,26
2017-06-15T10:28:09.389Z,26
2017-06-15T10:30:05.511Z,26
2017-06-15T10:32:04.742Z,26
2017-06-15T10:34:05.184Z,26
2017-06-15T10:36:09.975Z,26
2017-06-15T10:38:04.666Z,26
2017-06-15T10:40:04.954Z,26
2017-06-15T10:42:04.635Z,26
2017-06-15T10:44:05.319Z,26
2017-06-15T10:46:05.103Z,26.1
2017-06-15T10:48:04.832Z,26
2017-06-15T10:50:04.823Z,26
2017-06-15T10:52:05.861Z,26
2017-06-15T10:54:05.134Z,26
2017-06-15T10:56:04.801Z,26
2017-06-15T10:58:05.655Z,26
2017-06-15T11:00:12.904Z,26
2017-06-15T11:02:05.592Z,26
2017-06-15T11:04:05.551Z,26
2017-06-15T11:06:05.474Z,26
2017-06-15T11:08:05.242Z,26.1
2017-06-15T11:10:04.976Z,26
2017-06-15T11:12:05.233Z,26.1
2017-06-15T11:14:07.471Z,26.1
2017-06-15T11:16:07.856Z,26.1
2017-06-15T11:18:04.791Z,26.1
2017-06-15T11:20:08.046Z,26.1
2017-06-15T11:22:04.937Z,26.1
2017-06-15T11:24:04.596Z,26.1
2017-06-15T11:26:05.469Z,26.1
2017-06-15T11:28:05.125Z,26.1
2017-06-15T11:30:04.758Z,26.1
2017-06-15T11:32:13.033Z,26.1
2017-06-15T11:34:04.936Z,26.1
2017-06-15T11:36:04.670Z,26.1
2017-06-15T11:38:05.495Z,26.1
2017-06-15T11:40:04.953Z,26.1
2017-06-15T11:42:04.753Z,26.1
2017-06-15T11:44:05.447Z,26.1
2017-06-15T11:46:05.395Z,26.1
2017-06-15T11:48:04.649Z,26.1
2017-06-15T11:50:05.365Z,26.1
2017-06-15T11:52:05.187Z,26.1
2017-06-15T11:54:05.568Z,26.1
2017-06-15T11:56:10.550Z,26.2
2017-06-15T11:58:05.373Z,26.2
2017-06-15T12:00:05.104Z,26.2
2017-06-15T12:02:07.344Z,26.2
2017-06-15T12:04:05.206Z,26.2
2017-06-15T12:06:07.414Z,26.2
2017-06-15T12:08:05.089Z,26.2
2017-06-15T12:10:05.288Z,26.2
2017-06-15T12:12:05.004Z,26.2
2017-06-15T12:14:04.805Z,26.2
2017-06-15T12:16:05.648Z,26.2
2017-06-15T12:18:05.570Z,26.2
2017-06-15T12:20:07.796Z,26.2
2017-06-15T12:22:05.651Z,26.2
2017-06-15T12:24:05.373Z,26.2
2017-06-15T12:26:05.215Z,26.2
2017-06-15T12:28:05.457Z,26.2
2017-06-15T12:30:05.167Z,26.2
2017-06-15T12:32:07.517Z,26.2
2017-06-15T12:34:05.442Z,26.2
2017-06-15T12:36:06.344Z,26.2
2017-06-15T12:38:04.888Z,26.2
2017-06-15T12:40:04.794Z,26.2
2017-06-15T12:42:05.582Z,26.2
2017-06-15T12:44:08.014Z,26.2
2017-06-15T12:46:05.524Z,26.2
2017-06-15T12:48:04.755Z,26.2
2017-06-15T12:50:05.488Z,26.2
2017-06-15T12:52:04.853Z,26.2
2017-06-15T12:54:08.040Z,26.1
2017-06-15T12:56:05.210Z,26.2
2017-06-15T12:58:05.246Z,26.2
2017-06-15T13:00:04.962Z,26.1
2017-06-15T13:02:07.203Z,26.1
2017-06-15T13:04:05.059Z,26.2
2017-06-15T13:06:04.762Z,26.1
2017-06-15T13:08:07.990Z,26.1
2017-06-15T13:10:04.863Z,26.1
2017-06-15T13:12:05.579Z,26.1
2017-06-15T13:14:05.460Z,26.1
2017-06-15T13:16:05.276Z,26.1
2017-06-15T13:18:07.704Z,26.1
2017-06-15T13:20:05.594Z,26.1
2017-06-15T13:22:05.488Z,26.1
2017-06-15T13:24:07.695Z,26.2
2017-06-15T13:26:12.433Z,26.2
2017-06-15T13:28:05.312Z,26.2
2017-06-15T13:30:05.290Z,26.1
2017-06-15T13:32:05.022Z,26.1
2017-06-15T13:34:07.677Z,26.1
2017-06-15T13:36:05.379Z,26.2
2017-06-15T13:38:05.084Z,26.2
2017-06-15T13:40:05.016Z,26.2
2017-06-15T13:42:10.287Z,26.1
2017-06-15T13:44:07.505Z,26.1
2017-06-15T13:46:05.352Z,26.1
2017-06-15T13:48:05.009Z,26.1
2017-06-15T13:50:04.730Z,26.1
2017-06-15T13:52:08.014Z,26.1
2017-06-15T13:54:04.732Z,26.1
2017-06-15T13:56:05.480Z,26.1
2017-06-15T13:58:05.260Z,26.1
2017-06-15T14:00:04.951Z,26.1
2017-06-15T14:02:04.801Z,26.2
2017-06-15T14:04:05.625Z,26.2
2017-06-15T14:06:05.338Z,26.2
2017-06-15T14:08:05.077Z,26.2
2017-06-15T14:10:10.518Z,26.2
2017-06-15T14:12:04.739Z,26.2
2017-06-15T14:14:05.439Z,26.2
2017-06-15T14:16:05.169Z,26.2
2017-06-15T14:18:10.284Z,26.2
2017-06-15T14:20:07.559Z,26.2
2017-06-15T14:22:05.350Z,26.2
2017-06-15T14:24:10.156Z,26.2
2017-06-15T14:26:04.839Z,26.2
2017-06-15T14:28:05.026Z,26.2
2017-06-15T14:30:12.347Z,26.2
2017-06-15T14:32:05.067Z,26.1
2017-06-15T14:34:05.186Z,26.1
2017-06-15T14:36:05.466Z,26.1
2017-06-15T14:38:04.745Z,26.1
2017-06-15T14:40:05.579Z,26.1
2017-06-15T14:42:07.802Z,26.1
2017-06-15T14:44:05.477Z,26.1
2017-06-15T14:46:05.379Z,26.1
2017-06-15T14:48:05.106Z,26.1
2017-06-15T14:50:04.816Z,26.1
2017-06-15T14:52:05.717Z,26.1
2017-06-15T14:54:05.425Z,26.1
2017-06-15T14:56:07.692Z,26
2017-06-15T14:58:05.714Z,26
2017-06-15T15:00:07.923Z,26
2017-06-15T15:02:05.580Z,26
2017-06-15T15:04:10.479Z,25.9
2017-06-15T15:06:05.284Z,25.9
2017-06-15T15:08:05.065Z,25.9
2017-06-15T15:10:05.113Z,25.8
2017-06-15T15:12:04.846Z,25.5
2017-06-15T15:14:13.124Z,25.4
2017-06-15T15:16:04.881Z,25.4
2017-06-15T15:18:05.279Z,25.5
2017-06-15T15:20:05.034Z,25.5
2017-06-15T15:22:05.094Z,25.5
2017-06-15T15:24:04.873Z,25.5
2017-06-15T15:26:04.729Z,25.5
2017-06-15T15:28:05.813Z,25.4
2017-06-15T15:30:07.570Z,25.4
2017-06-15T15:32:04.890Z,25.4
2017-06-15T15:34:04.777Z,25.4
2017-06-15T15:36:04.973Z,25.4
2017-06-15T15:38:07.364Z,25.4
2017-06-15T15:40:07.688Z,25.4
2017-06-15T15:42:05.390Z,25.4
2017-06-15T15:44:05.181Z,25.4
2017-06-15T15:46:05.231Z,25.4
2017-06-15T15:48:10.047Z,25.3
2017-06-15T15:50:09.774Z,25.3
2017-06-15T15:52:05.725Z,25.3
2017-06-15T15:54:05.292Z,25.3
2017-06-15T15:56:04.979Z,25.3
2017-06-15T15:58:04.874Z,25.3
2017-06-15T16:00:08.151Z,25.2
2017-06-15T16:02:05.430Z,25.2
2017-06-15T16:04:05.258Z,25.1
2017-06-15T16:06:04.984Z,25.2
2017-06-15T16:08:04.910Z,25.2
2017-06-15T16:10:05.324Z,25.2
2017-06-15T16:12:05.052Z,25.3
2017-06-15T16:14:04.779Z,25.3
2017-06-15T16:16:05.576Z,25.2
2017-06-15T16:18:10.539Z,25.1
2017-06-15T16:20:07.758Z,25.2
2017-06-15T16:22:05.585Z,25.2
2017-06-15T16:24:05.301Z,25.1
2017-06-15T16:26:07.659Z,25.2
2017-06-15T16:28:05.454Z,25.2
2017-06-15T16:30:09.797Z,25.1
2017-06-15T16:32:05.086Z,25.2
2017-06-15T16:34:07.528Z,25.2
2017-06-15T16:36:05.272Z,25.1
2017-06-15T16:38:05.941Z,25.2
2017-06-15T16:40:05.784Z,25.3
2017-06-15T16:42:09.865Z,25.3
2017-06-15T16:44:07.339Z,25.3
2017-06-15T16:46:05.471Z,25.3
2017-06-15T16:48:07.906Z,25.3
2017-06-15T16:50:05.662Z,25.3
2017-06-15T16:52:13.352Z,25.4
2017-06-15T16:54:09.950Z,25.4
2017-06-15T16:56:04.916Z,25.3
2017-06-15T16:58:05.315Z,25.3
2017-06-15T17:00:05.022Z,25.3
2017-06-15T17:02:04.734Z,25.3
2017-06-15T17:04:10.593Z,25.3
2017-06-15T17:06:15.479Z,25.3
2017-06-15T17:08:05.232Z,25.4
2017-06-15T17:10:05.199Z,25.4
2017-06-15T17:12:05.090Z,25.4
2017-06-15T17:14:07.497Z,25.4
2017-06-15T17:16:05.335Z,25.4
2017-06-15T17:18:07.290Z,25.5
2017-06-15T17:20:08.085Z,25.5
2017-06-15T17:22:05.359Z,25.4
2017-06-15T17:24:05.070Z,25.5
2017-06-15T17:26:05.269Z,25.5
2017-06-15T17:28:04.958Z,25.5
2017-06-15T17:30:05.345Z,25.5
2017-06-15T17:32:07.686Z,25.4
2017-06-15T17:34:08.014Z,25.4
2017-06-15T17:36:04.711Z,25.4
2017-06-15T17:38:05.378Z,25.4
2017-06-15T17:40:05.265Z,25.4
2017-06-15T17:42:05.032Z,25.5
2017-06-15T17:44:05.224Z,25.5
2017-06-15T17:46:07.605Z,25.5
2017-06-15T17:48:04.823Z,25.5
2017-06-15T17:50:08.065Z,25.5
2017-06-15T17:52:04.917Z,25.5
2017-06-15T17:54:05.581Z,25.5
2017-06-15T17:56:07.332Z,25.5
2017-06-15T17:58:10.117Z,25.5
2017-06-15T18:00:04.817Z,25.5
2017-06-15T18:02:05.621Z,25.5
2017-06-15T18:04:10.073Z,25.5
2017-06-15T18:06:04.740Z,25.5
2017-06-15T18:08:05.437Z,25.6
2017-06-15T18:10:07.977Z,25.6
2017-06-15T18:12:04.726Z,25.6
2017-06-15T18:14:05.391Z,25.6
2017-06-15T18:16:10.230Z,25.5
2017-06-15T18:18:05.164Z,25.6
2017-06-15T18:20:04.860Z,25.6
2017-06-15T18:22:05.784Z,25.6
2017-06-15T18:24:07.367Z,25.6
2017-06-15T18:26:05.149Z,25.6
2017-06-15T18:28:04.885Z,25.6
2017-06-15T18:30:05.774Z,25.5
2017-06-15T18:32:05.525Z,25.6
2017-06-15T18:34:04.805Z,25.6
2017-06-15T18:36:10.572Z,25.5
2017-06-15T18:38:05.301Z,25.5
2017-06-15T18:40:05.147Z,25.5
2017-06-15T18:42:04.960Z,25.5
2017-06-15T18:44:04.707Z,25.5
2017-06-15T18:46:05.522Z,25.5
2017-06-15T18:48:10.420Z,25.5
2017-06-15T18:50:05.419Z,25.4
2017-06-15T18:52:05.222Z,25.4
2017-06-15T18:54:04.896Z,25.5
2017-06-15T18:56:05.318Z,25.4
2017-06-15T18:58:05.161Z,25.4
2017-06-15T19:00:04.876Z,25.3
2017-06-15T19:02:05.597Z,25.4
2017-06-15T19:04:10.328Z,25.3
2017-06-15T19:06:05.066Z,25.3
2017-06-15T19:08:07.292Z,25.3
2017-06-15T19:10:07.705Z,25.3
2017-06-15T19:12:05.436Z,25.3
2017-06-15T19:14:05.146Z,25.3
2017-06-15T19:16:04.892Z,25.3
2017-06-15T19:18:12.428Z,25.3
2017-06-15T19:20:10.141Z,25.3
2017-06-15T19:22:05.878Z,25.3
2017-06-15T19:24:04.767Z,25.3
2017-06-15T19:26:04.980Z,25.3
2017-06-15T19:28:05.621Z,25.4
2017-06-15T19:30:05.410Z,25.3
2017-06-15T19:32:04.704Z,25.3
2017-06-15T19:34:10.560Z,25.3
2017-06-15T19:36:07.320Z,25.4
2017-06-15T19:38:05.039Z,25.3
2017-06-15T19:40:07.854Z,25.3
2017-06-15T19:42:05.125Z,25.3
2017-06-15T19:44:04.880Z,25.3
2017-06-15T19:46:08.269Z,25.3
2017-06-15T19:48:05.011Z,25.3
2017-06-15T19:50:04.730Z,25.3
2017-06-15T19:52:05.646Z,25.3
2017-06-15T19:54:08.133Z,25.3
2017-06-15T19:56:04.843Z,25.3
2017-06-15T19:58:08.100Z,25.3
2017-06-15T20:00:07.330Z,25.3
2017-06-15T20:02:05.009Z,25.3
2017-06-15T20:04:04.828Z,25.3
2017-06-15T20:06:05.080Z,25.3
2017-06-15T20:08:04.751Z,25.3
2017-06-15T20:10:05.818Z,25.3
2017-06-15T20:12:05.609Z,25.3
2017-06-15T20:14:05.299Z,25.3
2017-06-15T20:16:15.102Z,25.2
2017-06-15T20:18:10.089Z,25.2
2017-06-15T20:20:07.316Z,25.3
2017-06-15T20:22:05.073Z,25.2
2017-06-15T20:24:09.810Z,25.2
2017-06-15T20:26:05.611Z,25.2
2017-06-15T20:28:05.409Z,25.2
2017-06-15T20:30:04.654Z,25.2
2017-06-15T20:32:05.311Z,25.2
2017-06-15T20:34:07.655Z,25.2
2017-06-15T20:36:05.325Z,25.2
2017-06-15T20:38:07.499Z,25.2
2017-06-15T20:40:04.732Z,25.2
2017-06-15T20:42:10.590Z,25.2
2017-06-15T20:44:05.275Z,25.2
2017-06-15T20:46:05.036Z,25.2
2017-06-15T20:48:04.786Z,25.2
2017-06-15T20:50:05.077Z,25.2
2017-06-15T20:52:04.784Z,25.2
2017-06-15T20:54:05.482Z,25.2
2017-06-15T20:56:05.176Z,25.1
2017-06-15T20:58:05.161Z,25.1
2017-06-15T21:00:04.911Z,25.1
2017-06-15T21:02:04.640Z,25.1
2017-06-15T21:04:05.759Z,25.1
2017-06-15T21:06:05.420Z,25.1
2017-06-15T21:08:05.175Z,25.1
2017-06-15T21:10:05.137Z,25.1
2017-06-15T21:12:05.382Z,25.1
2017-06-15T21:14:04.648Z,25.1
2017-06-15T21:16:05.460Z,25.1
2017-06-15T21:18:05.380Z,25.1
2017-06-15T21:20:05.077Z,25.1
2017-06-15T21:22:04.885Z,25.1
2017-06-15T21:24:07.201Z,25.1
2017-06-15T21:26:04.944Z,25.1
2017-06-15T21:28:05.081Z,25.1
2017-06-15T21:30:04.852Z,25.1
2017-06-15T21:32:05.527Z,25.1
2017-06-15T21:34:05.954Z,25
2017-06-15T21:36:04.856Z,25
2017-06-15T21:38:06.065Z,25
2017-06-15T21:40:07.574Z,25
2017-06-15T21:42:05.258Z,25
2017-06-15T21:44:05.349Z,25
2017-06-15T21:46:05.480Z,25
2017-06-15T21:48:05.280Z,25
2017-06-15T21:50:05.126Z,25
2017-06-15T21:52:10.123Z,24.9
2017-06-15T21:54:05.452Z,25
2017-06-15T21:56:05.177Z,25
2017-06-15T21:58:05.257Z,24.9
2017-06-15T22:00:05.055Z,24.9
2017-06-15T22:02:04.766Z,24.9
2017-06-15T22:04:05.695Z,24.9
2017-06-15T22:06:10.433Z,24.9
2017-06-15T22:08:05.259Z,24.9
2017-06-15T22:10:05.040Z,24.9
2017-06-15T22:12:05.268Z,24.9
2017-06-15T22:14:04.924Z,24.9
2017-06-15T22:16:08.320Z,24.9
2017-06-15T22:18:05.424Z,24.9
2017-06-15T22:20:07.196Z,24.9
2017-06-15T22:22:07.558Z,24.9
2017-06-15T22:24:05.238Z,24.9
2017-06-15T22:26:05.060Z,24.9
2017-06-15T22:28:07.488Z,24.9
2017-06-15T22:30:05.324Z,24.9
2017-06-15T22:32:05.539Z,24.9
2017-06-15T22:34:05.377Z,24.9
2017-06-15T22:36:07.646Z,24.9
2017-06-15T22:38:05.385Z,24.8
2017-06-15T22:40:05.281Z,24.9
2017-06-15T22:42:04.989Z,24.8
2017-06-15T22:44:04.834Z,24.8
2017-06-15T22:46:05.675Z,24.8
2017-06-15T22:48:05.364Z,24.8
2017-06-15T22:50:07.547Z,24.8
2017-06-15T22:52:05.344Z,24.8
2017-06-15T22:54:07.601Z,24.8
2017-06-15T22:56:05.469Z,24.8
2017-06-15T22:58:05.464Z,24.7
2017-06-15T23:00:05.136Z,24.7
2017-06-15T23:02:05.324Z,24.7
2017-06-15T23:04:05.389Z,24.7
2017-06-15T23:06:07.648Z,24.7
2017-06-15T23:08:05.423Z,24.7
2017-06-15T23:10:07.883Z,24.7
2017-06-15T23:12:10.666Z,24.7
2017-06-15T23:14:07.420Z,24.7
2017-06-15T23:16:13.085Z,24.7
2017-06-15T23:18:08.035Z,24.6
2017-06-15T23:20:07.275Z,24.6
2017-06-15T23:22:05.121Z,24.6
2017-06-15T23:24:07.510Z,24.6
2017-06-15T23:26:05.262Z,24.6
2017-06-15T23:28:05.084Z,24.6
2017-06-15T23:30:07.890Z,24.5
2017-06-15T23:32:05.578Z,24.5
2017-06-15T23:34:05.291Z,24.5
2017-06-15T23:36:05.121Z,24.5
2017-06-15T23:38:05.212Z,24.5
2017-06-15T23:40:05.038Z,24.5
2017-06-15T23:42:04.879Z,24.5
2017-06-15T23:44:07.622Z,24.5
2017-06-15T23:46:05.369Z,24.5
2017-06-15T23:48:05.069Z,24.5
2017-06-15T23:50:04.774Z,24.4
2017-06-15T23:52:05.273Z,24.4
2017-06-15T23:54:05.123Z,24.4
2017-06-15T23:56:04.882Z,24.4
2017-06-15T23:58:05.586Z,24.4
